createdAt,value
2022-07-26T00:01:37.898Z,97039.19
2022-07-26T00:04:04.669Z,97046.03
2022-07-26T00:06:31.276Z,97057.09
2022-07-26T00:08:57.784Z,97072.13
2022-07-26T00:11:25.617Z,97070.63
2022-07-26T00:13:52.254Z,97078.81
2022-07-26T00:16:19.343Z,97079.66
2022-07-26T00:18:47.505Z,97075.63
2022-07-26T00:21:14.075Z,97087.81
2022-07-26T00:23:40.681Z,97096.03
2022-07-26T00:26:13.063Z,97095.69
2022-07-26T00:28:43.892Z,97089.66
2022-07-26T00:31:12.166Z,97088.63
2022-07-26T00:33:39.244Z,97092.78
2022-07-26T00:36:07.581Z,97098.00
2022-07-26T00:38:34.405Z,97092.16
2022-07-26T00:41:01.996Z,97099.34
2022-07-26T00:43:28.573Z,97103.84
2022-07-26T00:45:55.148Z,97099.34
2022-07-26T00:48:21.711Z,97086.16
2022-07-26T00:50:48.295Z,97079.13
2022-07-26T00:53:14.937Z,97067.91
2022-07-26T00:55:41.729Z,97049.50
2022-07-26T00:58:08.354Z,97020.56
2022-07-26T01:00:35.117Z,97012.91
2022-07-26T01:03:02.658Z,97001.88
2022-07-26T01:05:29.293Z,96987.03
2022-07-26T01:07:56.488Z,96969.50
2022-07-26T01:10:23.077Z,96948.31
2022-07-26T01:12:49.896Z,96939.94
2022-07-26T01:15:17.007Z,96928.09
2022-07-26T01:17:44.083Z,96939.59
2022-07-26T01:20:12.524Z,96942.13
2022-07-26T01:22:40.154Z,96960.31
2022-07-26T01:25:07.597Z,96967.69
2022-07-26T01:27:39.165Z,96959.66
2022-07-26T01:30:09.468Z,96972.84
2022-07-26T01:32:36.227Z,96981.69
2022-07-26T01:35:04.690Z,96983.19
2022-07-26T01:37:31.223Z,96968.84
2022-07-26T01:39:57.776Z,96967.19
2022-07-26T01:42:24.321Z,96966.00
2022-07-26T01:44:50.901Z,96952.19
2022-07-26T01:47:17.522Z,96963.97
2022-07-26T01:49:44.080Z,96959.50
2022-07-26T01:52:10.684Z,96962.50
2022-07-26T01:54:37.241Z,96959.84
2022-07-26T01:57:03.957Z,96967.81
2022-07-26T01:59:30.576Z,96968.69
2022-07-26T02:01:57.230Z,96961.34
2022-07-26T02:04:42.273Z,96960.84
2022-07-26T02:07:10.774Z,96955.00
2022-07-26T02:09:40.128Z,96946.84
2022-07-26T02:12:07.131Z,96943.16
2022-07-26T02:14:33.707Z,96948.00
2022-07-26T02:17:00.412Z,96939.47
2022-07-26T02:19:30.953Z,96940.63
2022-07-26T02:21:58.755Z,96945.81
2022-07-26T02:24:28.963Z,96943.31
2022-07-26T02:26:56.945Z,96944.69
2022-07-26T02:29:23.741Z,96941.16
2022-07-26T02:31:50.845Z,96939.00
2022-07-26T02:34:17.874Z,96944.84
2022-07-26T02:36:44.676Z,96954.50
2022-07-26T02:39:12.228Z,96950.53
2022-07-26T02:41:38.842Z,96958.88
2022-07-26T02:44:06.373Z,96973.56
2022-07-26T02:46:33.203Z,96967.75
2022-07-26T02:49:00.842Z,96971.41
2022-07-26T02:51:28.035Z,96968.22
2022-07-26T02:53:54.725Z,96957.88
2022-07-26T02:56:21.533Z,96967.91
2022-07-26T02:58:48.094Z,96972.09
2022-07-26T03:01:14.651Z,96981.59
2022-07-26T03:03:43.115Z,96978.25
2022-07-26T03:06:11.546Z,96971.56
2022-07-26T03:08:38.119Z,96971.41
2022-07-26T03:11:07.879Z,96962.72
2022-07-26T03:13:38.311Z,96964.72
2022-07-26T03:16:05.491Z,96956.88
2022-07-26T03:18:32.071Z,96966.25
2022-07-26T03:20:58.802Z,96961.53
2022-07-26T03:23:25.638Z,96958.19
2022-07-26T03:25:52.214Z,96955.88
2022-07-26T03:28:19.619Z,96953.06
2022-07-26T03:30:46.382Z,96945.31
2022-07-26T03:33:12.980Z,96939.34
2022-07-26T03:35:39.596Z,96934.97
2022-07-26T03:38:06.980Z,96946.31
2022-07-26T03:40:33.582Z,96946.50
2022-07-26T03:43:00.110Z,96946.38
2022-07-26T03:45:26.677Z,96952.16
2022-07-26T03:47:54.080Z,96954.88
2022-07-26T03:50:20.643Z,96958.88
2022-07-26T03:52:47.259Z,96950.03
2022-07-26T03:55:32.981Z,96949.22
2022-07-26T03:57:59.566Z,96952.53
2022-07-26T04:00:26.601Z,96947.50
2022-07-26T04:02:53.188Z,96943.00
2022-07-26T04:05:23.353Z,96941.66
2022-07-26T04:07:53.393Z,96940.00
2022-07-26T04:10:20.462Z,96931.00
2022-07-26T04:12:46.969Z,96939.34
2022-07-26T04:15:13.512Z,96936.34
2022-07-26T04:17:41.540Z,96942.19
2022-07-26T04:20:10.296Z,96940.34
2022-07-26T04:22:38.357Z,96943.34
2022-07-26T04:25:06.745Z,96940.69
2022-07-26T04:27:34.068Z,96941.00
2022-07-26T04:30:00.776Z,96937.00
2022-07-26T04:32:27.533Z,96942.50
2022-07-26T04:34:54.095Z,96943.69
2022-07-26T04:37:20.694Z,96941.19
2022-07-26T04:39:51.666Z,96950.19
2022-07-26T04:42:21.139Z,96950.34
2022-07-26T04:44:47.684Z,96940.34
2022-07-26T04:47:14.260Z,96942.16
2022-07-26T04:49:40.807Z,96938.16
2022-07-26T04:52:07.396Z,96947.81
2022-07-26T04:54:33.935Z,96950.50
2022-07-26T04:57:00.510Z,96949.50
2022-07-26T04:59:27.041Z,96947.50
2022-07-26T05:01:53.642Z,96942.44
2022-07-26T05:04:20.225Z,96937.25
2022-07-26T05:06:46.745Z,96942.59
2022-07-26T05:09:13.313Z,96935.94
2022-07-26T05:11:40.020Z,96933.94
2022-07-26T05:14:06.924Z,96935.13
2022-07-26T05:16:33.663Z,96946.44
2022-07-26T05:19:05.845Z,96946.44
2022-07-26T05:21:32.362Z,96950.28
2022-07-26T05:23:58.979Z,96950.13
2022-07-26T05:26:25.504Z,96957.28
2022-07-26T05:28:52.105Z,96948.66
2022-07-26T05:31:18.682Z,96956.16
2022-07-26T05:33:45.364Z,96953.78
2022-07-26T05:36:11.966Z,96957.63
2022-07-26T05:38:38.639Z,96962.41
2022-07-26T05:41:05.679Z,96964.06
2022-07-26T05:43:41.326Z,96959.03
2022-07-26T05:46:09.873Z,96966.19
2022-07-26T05:48:36.642Z,96963.75
2022-07-26T05:51:03.311Z,96971.03
2022-07-26T05:53:29.854Z,96968.38
2022-07-26T05:55:56.396Z,96971.31
2022-07-26T05:58:22.902Z,96966.28
2022-07-26T06:00:49.560Z,96964.72
2022-07-26T06:03:22.053Z,96971.69
2022-07-26T06:05:53.539Z,96977.97
2022-07-26T06:08:21.262Z,96975.88
2022-07-26T06:10:48.779Z,96971.53
2022-07-26T06:13:15.652Z,96976.16
2022-07-26T06:15:43.112Z,96983.69
2022-07-26T06:18:10.177Z,96980.78
2022-07-26T06:20:41.768Z,96980.38
2022-07-26T06:23:08.474Z,96979.00
2022-07-26T06:25:35.347Z,96982.34
2022-07-26T06:28:03.975Z,96976.03
2022-07-26T06:30:30.634Z,96991.34
2022-07-26T06:32:57.325Z,96986.22
2022-07-26T06:35:24.313Z,96978.84
2022-07-26T06:37:51.234Z,96983.19
2022-07-26T06:40:17.797Z,96978.00
2022-07-26T06:42:44.329Z,96975.44
2022-07-26T06:45:11.296Z,96986.44
2022-07-26T06:47:37.878Z,96976.81
2022-07-26T06:50:04.759Z,96977.44
2022-07-26T06:52:32.880Z,96984.53
2022-07-26T06:55:00.389Z,96989.63
2022-07-26T06:57:27.297Z,96996.09
2022-07-26T06:59:53.903Z,96993.50
2022-07-26T07:02:21.110Z,97001.19
2022-07-26T07:04:47.780Z,97000.06
2022-07-26T07:07:14.474Z,96996.47
2022-07-26T07:09:41.595Z,97004.34
2022-07-26T07:12:10.245Z,96992.84
2022-07-26T07:14:37.569Z,96991.84
2022-07-26T07:17:12.114Z,96994.63
2022-07-26T07:19:39.848Z,96993.63
2022-07-26T07:22:06.532Z,97002.66
2022-07-26T07:24:33.067Z,96993.00
2022-07-26T07:27:02.677Z,96996.66
2022-07-26T07:29:29.303Z,96998.50
2022-07-26T07:31:56.505Z,97000.91
2022-07-26T07:34:24.096Z,97003.59
2022-07-26T07:36:51.240Z,96993.97
2022-07-26T07:39:18.621Z,96996.22
2022-07-26T07:41:46.960Z,96995.97
2022-07-26T07:44:14.005Z,96985.31
2022-07-26T07:46:40.883Z,96997.09
2022-07-26T07:49:08.026Z,97003.47
2022-07-26T07:51:36.235Z,97002.41
2022-07-26T07:54:05.592Z,97006.72
2022-07-26T07:56:32.988Z,97007.75
2022-07-26T07:58:59.613Z,97008.84
2022-07-26T08:01:39.779Z,97007.16
2022-07-26T08:04:07.591Z,97010.41
2022-07-26T08:06:34.252Z,97007.16
2022-07-26T08:09:00.917Z,97002.00
2022-07-26T08:11:30.364Z,97010.03
2022-07-26T08:13:56.893Z,97009.25
2022-07-26T08:16:23.695Z,97013.75
2022-07-26T08:18:57.875Z,97014.59
2022-07-26T08:21:28.218Z,97009.09
2022-07-26T08:23:56.491Z,97009.97
2022-07-26T08:26:23.055Z,97012.22
2022-07-26T08:28:58.506Z,97006.84
2022-07-26T08:31:27.718Z,97008.56
2022-07-26T08:33:54.357Z,97009.97
2022-07-26T08:36:20.939Z,97011.91
2022-07-26T08:38:48.337Z,97021.00
2022-07-26T08:41:17.232Z,97020.03
2022-07-26T08:43:52.410Z,97019.56
2022-07-26T08:46:25.217Z,97014.88
2022-07-26T08:48:53.301Z,97016.72
2022-07-26T08:51:22.681Z,97011.63
2022-07-26T08:53:50.665Z,97024.22
2022-07-26T08:56:17.250Z,97031.78
2022-07-26T08:58:43.925Z,97035.25
2022-07-26T09:01:13.096Z,97034.63
2022-07-26T09:03:41.673Z,97034.84
2022-07-26T09:06:22.751Z,97045.09
2022-07-26T09:09:09.660Z,97044.09
2022-07-26T09:11:36.714Z,97058.56
2022-07-26T09:14:07.323Z,97048.50
2022-07-26T09:16:39.011Z,97057.41
2022-07-26T09:19:24.537Z,97059.84
2022-07-26T09:21:52.193Z,97065.53
2022-07-26T09:24:36.042Z,97061.75
2022-07-26T09:27:05.524Z,97060.44
2022-07-26T09:29:49.530Z,97056.41
2022-07-26T09:32:26.653Z,97060.38
2022-07-26T09:35:24.080Z,97065.75
2022-07-26T09:37:55.925Z,97062.19
2022-07-26T09:40:22.504Z,97056.53
2022-07-26T09:43:04.277Z,97063.03
2022-07-26T09:45:32.938Z,97063.75
2022-07-26T09:48:00.305Z,97072.38
2022-07-26T09:50:29.383Z,97068.53
2022-07-26T09:53:02.170Z,97067.59
2022-07-26T09:55:37.745Z,97069.06
2022-07-26T09:58:10.129Z,97071.63
2022-07-26T10:00:36.666Z,97067.13
2022-07-26T10:03:03.255Z,97076.69
2022-07-26T10:05:29.998Z,97075.47
2022-07-26T10:07:59.125Z,97077.50
2022-07-26T10:10:31.599Z,97075.66
2022-07-26T10:13:02.800Z,97075.19
2022-07-26T10:15:49.432Z,97084.63
2022-07-26T10:18:38.171Z,97080.22
2022-07-26T10:21:21.958Z,97071.50
2022-07-26T10:23:51.246Z,97079.69
2022-07-26T10:26:33.021Z,97083.88
2022-07-26T10:29:17.574Z,97087.25
2022-07-26T10:31:45.970Z,97071.91
2022-07-26T10:34:31.497Z,97083.50
2022-07-26T10:36:59.849Z,97073.03
2022-07-26T10:39:27.094Z,97077.13
2022-07-26T10:42:04.964Z,97068.81
2022-07-26T10:44:36.528Z,97070.47
2022-07-26T10:47:08.775Z,97069.78
2022-07-26T10:49:42.587Z,97069.09
2022-07-26T10:52:10.801Z,97064.22
2022-07-26T10:55:04.989Z,97067.63
2022-07-26T10:57:35.052Z,97078.19
2022-07-26T11:00:09.952Z,97073.84
2022-07-26T11:02:37.113Z,97066.34
2022-07-26T11:05:25.947Z,97067.19
2022-07-26T11:08:10.755Z,97066.06
2022-07-26T11:10:41.867Z,97062.78
2022-07-26T11:13:17.523Z,97065.06
2022-07-26T11:15:49.844Z,97062.56
2022-07-26T11:18:18.435Z,97061.09
2022-07-26T11:20:47.537Z,97057.59
2022-07-26T11:23:34.145Z,97054.88
2022-07-26T11:26:07.506Z,97049.06
2022-07-26T11:28:53.547Z,97048.25
2022-07-26T11:31:23.670Z,97053.19
2022-07-26T11:34:18.443Z,97045.06
2022-07-26T11:36:46.157Z,97047.22
2022-07-26T11:39:15.111Z,97040.34
2022-07-26T11:41:44.583Z,97044.09
2022-07-26T11:44:17.710Z,97049.78
2022-07-26T11:46:47.973Z,97051.78
2022-07-26T11:49:17.531Z,97043.69
2022-07-26T11:51:58.233Z,97047.00
2022-07-26T11:54:29.426Z,97049.66
2022-07-26T11:56:59.377Z,97038.69
2022-07-26T11:59:28.912Z,97036.16
2022-07-26T12:01:56.490Z,97035.25
2022-07-26T12:04:29.723Z,97035.69
2022-07-26T12:06:58.425Z,97037.78
2022-07-26T12:09:52.056Z,97032.03
2022-07-26T12:12:24.193Z,97032.44
2022-07-26T12:15:02.100Z,97033.47
2022-07-26T12:17:34.954Z,97031.00
2022-07-26T12:20:18.499Z,97037.78
2022-07-26T12:23:00.746Z,97026.66
2022-07-26T12:25:30.930Z,97022.00
2022-07-26T12:27:57.809Z,97012.00
2022-07-26T12:30:25.584Z,97012.63
2022-07-26T12:33:02.288Z,96996.44
2022-07-26T12:35:33.464Z,96999.22
2022-07-26T12:38:00.129Z,97006.59
2022-07-26T12:40:29.519Z,96997.94
2022-07-26T12:43:02.452Z,96990.44
2022-07-26T12:45:34.016Z,96990.84
2022-07-26T12:48:03.178Z,96998.66
2022-07-26T12:50:32.827Z,96981.53
2022-07-26T12:53:02.452Z,96985.53
2022-07-26T12:55:29.153Z,96973.88
2022-07-26T12:57:55.970Z,96969.78
2022-07-26T13:00:24.195Z,96981.22
2022-07-26T13:02:54.771Z,96979.53
2022-07-26T13:05:21.652Z,96969.53
2022-07-26T13:07:48.325Z,96971.19
2022-07-26T13:10:32.398Z,96967.44
2022-07-26T13:12:59.962Z,96968.94
2022-07-26T13:15:37.235Z,96970.81
2022-07-26T13:18:08.901Z,96974.44
2022-07-26T13:20:39.293Z,96968.25
2022-07-26T13:23:11.649Z,96974.97
2022-07-26T13:25:40.783Z,96966.50
2022-07-26T13:28:15.832Z,96970.31
2022-07-26T13:30:43.600Z,96968.66
2022-07-26T13:33:10.680Z,96970.09
2022-07-26T13:35:39.332Z,96960.94
2022-07-26T13:38:08.105Z,96962.97
2022-07-26T13:40:34.728Z,96954.38
2022-07-26T13:43:01.485Z,96956.63
2022-07-26T13:45:29.136Z,96964.75
2022-07-26T13:47:56.093Z,96952.00
2022-07-26T13:50:22.719Z,96960.31
2022-07-26T13:52:49.466Z,96953.03
2022-07-26T13:55:16.174Z,96965.25
2022-07-26T13:57:53.159Z,96966.91
2022-07-26T14:00:25.961Z,96971.06
2022-07-26T14:02:52.672Z,96970.31
2022-07-26T14:05:20.333Z,96968.47
2022-07-26T14:07:46.906Z,96956.06
2022-07-26T14:10:13.563Z,96965.09
2022-07-26T14:12:40.840Z,96967.38
2022-07-26T14:15:15.197Z,96970.03
2022-07-26T14:17:47.297Z,96962.41
2022-07-26T14:20:14.956Z,96962.50
2022-07-26T14:22:41.549Z,96960.34
2022-07-26T14:25:08.501Z,96957.16
2022-07-26T14:27:35.055Z,96958.88
2022-07-26T14:30:01.888Z,96950.78
2022-07-26T14:32:28.457Z,96952.19
2022-07-26T14:34:54.989Z,96951.59
2022-07-26T14:37:42.244Z,96960.72
2022-07-26T14:40:08.626Z,96964.91
2022-07-26T14:42:35.163Z,96964.44
2022-07-26T14:45:01.885Z,96965.50
2022-07-26T14:47:28.448Z,96965.34
2022-07-26T14:49:55.007Z,96958.00
2022-07-26T14:52:21.559Z,96963.16
2022-07-26T14:54:48.213Z,96952.34
2022-07-26T14:57:14.819Z,96955.00
2022-07-26T14:59:41.383Z,96958.38
2022-07-26T15:02:10.844Z,96950.38
2022-07-26T15:04:37.475Z,96950.78
2022-07-26T15:07:04.067Z,96943.81
2022-07-26T15:09:32.040Z,96949.41
2022-07-26T15:11:59.599Z,96950.75
2022-07-26T16:00:56.815Z,96940.88
2022-07-26T16:03:23.680Z,96931.13
2022-07-26T16:05:50.339Z,96929.03
2022-07-26T16:08:16.877Z,96937.53
2022-07-26T16:10:43.545Z,96935.88
2022-07-26T16:13:10.105Z,96929.47
2022-07-26T16:15:36.639Z,96942.41
2022-07-26T16:18:06.423Z,96941.38
2022-07-26T16:20:33.318Z,96945.50
2022-07-26T16:23:00.168Z,96942.50
2022-07-26T16:25:26.683Z,96947.50
2022-07-26T16:27:53.390Z,96938.91
2022-07-26T16:30:21.366Z,96939.75
2022-07-26T16:32:47.946Z,96942.72
2022-07-26T16:35:14.965Z,96947.03
2022-07-26T16:37:42.221Z,96940.38
2022-07-26T16:40:09.476Z,96943.97
2022-07-26T16:42:36.056Z,96949.66
2022-07-26T16:45:03.044Z,96949.25
2022-07-26T16:47:29.641Z,96945.81
2022-07-26T16:49:56.212Z,96950.13
2022-07-26T16:52:22.913Z,96957.06
2022-07-26T16:54:49.433Z,96964.44
2022-07-26T16:57:15.951Z,96955.72
2022-07-26T16:59:42.482Z,96958.91
2022-07-26T17:02:09.235Z,96956.53
2022-07-26T17:04:36.329Z,96954.56
2022-07-26T17:07:23.954Z,96962.47
2022-07-26T17:09:49.724Z,96952.81
2022-07-26T17:12:18.614Z,96947.34
2022-07-26T17:14:45.297Z,96949.78
2022-07-26T17:17:11.977Z,96946.84
2022-07-26T17:19:38.827Z,96950.47
2022-07-26T17:22:05.416Z,96948.25
2022-07-26T17:24:31.975Z,96948.00
2022-07-26T17:26:58.506Z,96949.31
2022-07-26T17:29:25.073Z,96951.38
2022-07-26T17:31:56.351Z,96952.66
2022-07-26T17:34:23.104Z,96953.13
2022-07-26T17:36:58.955Z,96950.69
2022-07-26T17:39:51.632Z,96953.28
2022-07-26T17:42:14.919Z,96945.50
2022-07-26T17:44:42.563Z,96944.03
2022-07-26T17:47:27.909Z,96944.69
2022-07-26T17:50:08.939Z,96932.09
2022-07-26T17:52:40.957Z,96942.19
2022-07-26T17:55:07.774Z,96940.34
2022-07-26T17:57:34.388Z,96941.56
2022-07-26T18:00:06.229Z,96942.38
2022-07-26T18:02:33.326Z,96940.06
2022-07-26T18:04:59.904Z,96940.53
2022-07-26T18:07:26.523Z,96940.38
2022-07-26T18:09:53.084Z,96946.34
2022-07-26T18:12:19.819Z,96956.59
2022-07-26T18:14:46.404Z,96951.59
2022-07-26T18:17:12.996Z,96951.78
2022-07-26T18:19:39.560Z,96953.16
2022-07-26T18:22:06.496Z,96950.66
2022-07-26T18:24:33.185Z,96951.50
2022-07-26T18:26:59.785Z,96950.59
2022-07-26T18:29:26.326Z,96957.53
2022-07-26T18:31:52.925Z,96964.81
2022-07-26T18:34:19.538Z,96955.09
2022-07-26T18:36:46.207Z,96957.44
2022-07-26T18:39:13.212Z,96956.69
2022-07-26T18:41:39.944Z,96952.66
2022-07-26T18:44:06.569Z,96953.97
2022-07-26T18:46:33.638Z,96942.94
2022-07-26T18:49:00.677Z,96943.47
2022-07-26T18:51:29.013Z,96953.56
2022-07-26T18:53:55.846Z,96950.59
2022-07-26T18:56:23.313Z,96955.66
2022-07-26T18:58:50.368Z,96960.53
2022-07-26T19:01:17.016Z,96958.56
2022-07-26T19:03:43.644Z,96949.22
2022-07-26T19:06:11.824Z,96957.34
2022-07-26T19:08:38.547Z,96961.59
2022-07-26T19:11:05.156Z,96963.78
2022-07-26T19:13:31.679Z,96973.56
2022-07-26T19:15:58.487Z,96969.53
2022-07-26T19:18:25.179Z,96968.72
2022-07-26T19:20:51.751Z,96977.78
2022-07-26T19:23:18.303Z,96979.84
2022-07-26T19:25:44.931Z,96979.09
2022-07-26T19:28:13.887Z,96979.09
2022-07-26T19:30:40.728Z,96988.00
2022-07-26T19:33:07.368Z,96986.44
2022-07-26T19:35:33.918Z,96983.13
2022-07-26T19:38:00.551Z,96985.00
2022-07-26T19:40:27.315Z,96988.03
2022-07-26T19:42:54.000Z,96985.88
2022-07-26T19:45:22.433Z,96996.59
2022-07-26T19:47:50.068Z,96992.94
2022-07-26T19:50:16.617Z,96992.78
2022-07-26T19:52:43.176Z,96997.97
2022-07-26T19:55:10.304Z,96998.47
2022-07-26T19:57:37.144Z,97006.31
2022-07-26T20:00:08.272Z,97005.78
2022-07-26T20:02:35.050Z,97010.75
2022-07-26T20:05:01.730Z,97004.59
2022-07-26T20:07:30.986Z,97008.25
2022-07-26T20:09:57.476Z,97011.25
2022-07-26T20:12:24.062Z,97009.59
2022-07-26T20:14:50.652Z,97011.75
2022-07-26T20:17:17.421Z,97014.94
2022-07-26T20:19:44.028Z,97007.56
2022-07-26T20:22:11.096Z,97012.78
2022-07-26T20:24:38.266Z,97004.44
2022-07-26T20:27:06.363Z,97007.25
2022-07-26T20:29:33.217Z,97004.91
2022-07-26T20:31:59.881Z,97001.88
2022-07-26T20:34:26.517Z,96999.50
2022-07-26T20:36:54.812Z,96987.13
2022-07-26T20:39:21.722Z,96994.94
2022-07-26T20:41:48.499Z,96991.91
2022-07-26T20:44:16.571Z,96993.38
2022-07-26T20:46:45.390Z,96998.28
2022-07-26T20:49:12.218Z,97005.31
2022-07-26T20:51:39.102Z,97005.72
2022-07-26T20:54:06.802Z,96998.03
2022-07-26T20:56:33.844Z,96998.00
2022-07-26T20:59:02.499Z,96998.00
2022-07-26T21:01:33.141Z,97002.13
2022-07-26T21:03:59.794Z,96995.91
2022-07-26T21:06:29.049Z,96998.81
2022-07-26T21:08:57.731Z,97007.66
2022-07-26T21:11:24.502Z,97013.81
2022-07-26T21:13:51.050Z,97016.59
2022-07-26T21:16:21.630Z,97013.41
2022-07-26T21:18:52.758Z,97009.38
2022-07-26T21:21:21.075Z,97006.66
2022-07-26T21:23:49.501Z,97008.84
2022-07-26T21:26:16.091Z,97003.16
2022-07-26T21:28:42.750Z,97008.72
2022-07-26T21:31:09.299Z,97005.69
2022-07-26T21:33:44.137Z,97011.66
2022-07-26T21:36:10.951Z,97011.78
2022-07-26T21:38:37.505Z,97016.00
2022-07-26T21:41:04.052Z,97013.84
2022-07-26T21:43:30.601Z,97019.72
2022-07-26T21:45:59.082Z,97023.63
2022-07-26T21:48:25.696Z,97032.66
2022-07-26T21:50:52.729Z,97029.78
2022-07-26T21:53:19.245Z,97030.91
2022-07-26T21:55:46.076Z,97027.56
2022-07-26T21:58:12.610Z,97024.22
2022-07-26T22:00:41.686Z,97031.06
2022-07-26T22:03:10.159Z,97026.13
2022-07-26T22:05:39.820Z,97027.41
2022-07-26T22:08:12.654Z,97029.09
2022-07-26T22:10:45.107Z,97024.50
2022-07-26T22:13:14.153Z,97018.81
2022-07-26T22:15:41.797Z,97018.94
2022-07-26T22:18:13.732Z,97019.69
2022-07-26T22:20:40.790Z,97011.56
2022-07-26T22:23:09.575Z,97017.84
2022-07-26T22:25:37.455Z,97015.19
2022-07-26T22:28:07.305Z,97020.84
2022-07-26T22:30:34.381Z,97016.97
2022-07-26T22:33:03.088Z,97024.53
2022-07-26T22:35:35.032Z,97027.63
2022-07-26T22:38:09.047Z,97026.78
2022-07-26T22:40:36.273Z,97021.03
2022-07-26T22:43:03.667Z,97024.28
2022-07-26T22:45:32.024Z,97027.22
2022-07-26T22:48:02.238Z,97039.53
2022-07-26T22:50:29.178Z,97034.50
2022-07-26T22:52:56.135Z,97022.59
2022-07-26T22:55:23.072Z,97021.63
2022-07-26T22:57:50.161Z,97014.94
2022-07-26T23:00:18.546Z,97016.31
2022-07-26T23:02:45.367Z,97011.47
2022-07-26T23:05:14.142Z,97012.13
2022-07-26T23:07:40.778Z,97009.53
2022-07-26T23:10:09.132Z,97014.53
2022-07-26T23:12:36.354Z,97008.00
2022-07-26T23:15:04.456Z,97006.16
2022-07-26T23:17:31.000Z,97006.56
2022-07-26T23:19:57.669Z,97006.28
2022-07-26T23:22:24.218Z,96998.19
2022-07-26T23:24:50.775Z,96994.34
2022-07-26T23:27:20.135Z,96994.66
2022-07-26T23:29:48.281Z,96993.38
2022-07-26T23:32:15.738Z,96995.22
2022-07-26T23:34:42.352Z,96999.50
2022-07-26T23:37:08.977Z,96999.81
2022-07-26T23:39:35.760Z,96998.28
2022-07-26T23:42:02.997Z,96997.88
2022-07-26T23:44:31.024Z,97000.44
2022-07-26T23:46:58.675Z,96995.56
2022-07-26T23:49:25.988Z,96999.34
2022-07-26T23:51:52.684Z,97004.53
2022-07-26T23:54:19.378Z,96996.41
2022-07-26T23:56:45.923Z,96998.41
2022-07-26T23:59:13.253Z,97001.06
